Time;durP1;ratioP1;P1;durP2;ratioP2;P2;SDS_P1;SDS_P2;PMS_P1;PMS_P2;Temp;Humidity;BMP_temperature;BMP_pressure;BME280_temperature;BME280_humidity;BME280_pressure;Samples;Min_cycle;Max_cycle;Signal;HPM_P1;HPM_P2
2024/01/04 00:01:44;;;;;;;0.52;0.52;;;;;;;;;;5838022;28;20061;-86
2024/01/04 00:04:35;;;;;;;2.95;1.50;;;;;;;;;;5837938;28;20053;-85
2024/01/04 00:07:25;;;;;;;0.82;0.65;;;;;;;;;;5839299;28;20941;-87
2024/01/04 00:10:17;;;;;;;1.70;1.02;;;;;;;;;;5837851;28;20058;-86
2024/01/04 00:13:08;;;;;;;1.50;1.13;;;;;;;;;;5854210;28;20447;-85
2024/01/04 00:15:59;;;;;;;0.98;0.82;;;;;;;;;;5838233;28;20058;-86
2024/01/04 00:18:50;;;;;;;3.20;1.23;;;;;;;;;;5837773;28;20046;-86
2024/01/04 00:21:41;;;;;;;0.63;0.55;;;;;;;;;;5837875;28;20069;-86
2024/01/04 00:24:32;;;;;;;0.68;0.68;;;;;;;;;;5839227;28;20072;-87
2024/01/04 00:27:22;;;;;;;1.58;1.17;;;;;;;;;;5837920;28;20042;-86
2024/01/04 00:30:13;;;;;;;1.13;0.88;;;;;;;;;;5821816;28;20057;-86
2024/01/04 00:33:05;;;;;;;0.90;0.77;;;;;;;;;;5839011;28;20460;-86
2024/01/04 00:35:56;;;;;;;0.60;0.60;;;;;;;;;;5838136;28;20049;-86
2024/01/04 00:38:46;;;;;;;0.40;0.40;;;;;;;;;;5837539;28;20061;-86
2024/01/04 00:41:37;;;;;;;1.08;0.47;;;;;;;;;;5837717;28;20403;-86
2024/01/04 00:44:28;;;;;;;1.63;1.10;;;;;;;;;;5837492;28;20050;-86
2024/01/04 00:47:19;;;;;;;1.27;1.08;;;;;;;;;;5837537;28;20518;-86
2024/01/04 00:50:10;;;;;;;0.43;0.43;;;;;;;;;;5837415;28;20046;-86
2024/01/04 00:53:02;;;;;;;1.15;1.05;;;;;;;;;;5838853;28;20054;-83
2024/01/04 00:56:00;;;;;;;1.33;0.80;;;;;;;;;;5822944;28;20045;-86
2024/01/04 00:58:50;;;;;;;0.88;0.82;;;;;;;;;;5876845;28;20056;-86
2024/01/04 01:01:41;;;;;;;0.38;0.38;;;;;;;;;;5852833;28;20042;-86
2024/01/04 01:04:32;;;;;;;3.22;0.68;;;;;;;;;;5842478;28;20514;-86
2024/01/04 01:07:23;;;;;;;1.23;0.85;;;;;;;;;;5862974;28;20049;-87
2024/01/04 01:10:13;;;;;;;3.30;0.95;;;;;;;;;;5864616;28;20065;-86
2024/01/04 01:13:05;;;;;;;3.00;1.38;;;;;;;;;;5865704;28;20054;-85
2024/01/04 01:15:56;;;;;;;0.95;0.88;;;;;;;;;;5864633;28;20049;-85
2024/01/04 01:18:47;;;;;;;0.70;0.70;;;;;;;;;;5864071;28;20048;-86
2024/01/04 01:21:38;;;;;;;0.82;0.82;;;;;;;;;;5864052;28;20403;-86
2024/01/04 01:24:29;;;;;;;1.10;0.88;;;;;;;;;;5865480;28;20118;-86
2024/01/04 01:27:21;;;;;;;0.32;0.32;;;;;;;;;;5864096;28;20050;-85
2024/01/04 01:30:11;;;;;;;0.22;0.22;;;;;;;;;;5865247;28;20503;-85
2024/01/04 01:33:03;;;;;;;0.95;0.70;;;;;;;;;;5865039;28;20049;-85
2024/01/04 01:35:54;;;;;;;0.45;0.45;;;;;;;;;;5880718;28;20125;-85
2024/01/04 01:38:45;;;;;;;2.58;0.80;;;;;;;;;;5863673;28;20049;-85
2024/01/04 01:41:35;;;;;;;1.25;0.70;;;;;;;;;;5864978;28;20122;-85
2024/01/04 01:44:26;;;;;;;1.08;0.70;;;;;;;;;;5863600;28;20049;-85
2024/01/04 01:47:17;;;;;;;2.22;0.95;;;;;;;;;;5855359;28;20179;-85
2024/01/04 01:50:08;;;;;;;1.27;0.55;;;;;;;;;;5863267;28;20049;-85
2024/01/04 01:52:59;;;;;;;1.08;0.68;;;;;;;;;;5865316;28;20472;-86
2024/01/04 01:55:50;;;;;;;0.98;0.50;;;;;;;;;;5863177;28;20048;-85
2024/01/04 01:58:41;;;;;;;0.70;0.70;;;;;;;;;;5863229;28;20100;-85
2024/01/04 02:01:32;;;;;;;0.68;0.68;;;;;;;;;;5863406;28;20518;-85
2024/01/04 02:04:23;;;;;;;0.93;0.75;;;;;;;;;;5863167;28;20046;-85
2024/01/04 02:07:14;;;;;;;2.13;0.80;;;;;;;;;;5828842;28;20131;-85
2024/01/04 02:10:06;;;;;;;2.03;0.80;;;;;;;;;;5856440;28;20132;-86
2024/01/04 02:12:57;;;;;;;1.05;0.80;;;;;;;;;;5840521;28;20054;-86
2024/01/04 02:15:48;;;;;;;0.30;0.30;;;;;;;;;;5839796;28;20057;-85
2024/01/04 02:18:39;;;;;;;0.50;0.50;;;;;;;;;;5839488;28;20480;-84
2024/01/04 02:21:30;;;;;;;0.73;0.47;;;;;;;;;;5839793;28;20046;-85
2024/01/04 02:24:20;;;;;;;0.90;0.38;;;;;;;;;;5839565;28;20113;-86
2024/01/04 02:27:13;;;;;;;6.78;1.27;;;;;;;;;;5839693;28;20496;-85
2024/01/04 02:30:05;;;;;;;0.57;0.57;;;;;;;;;;5839749;28;20054;-86
2024/01/04 02:32:57;;;;;;;0.75;0.38;;;;;;;;;;5840058;28;20049;-86
2024/01/04 02:35:48;;;;;;;1.35;0.52;;;;;;;;;;5839553;28;20053;-85
2024/01/04 02:38:38;;;;;;;2.28;1.27;;;;;;;;;;5839628;28;20050;-85
2024/01/04 02:41:29;;;;;;;1.23;0.85;;;;;;;;;;5855730;28;20049;-86
2024/01/04 02:44:20;;;;;;;0.63;0.63;;;;;;;;;;5823318;28;20057;-87
2024/01/04 02:47:11;;;;;;;1.55;0.77;;;;;;;;;;5839461;28;20428;-87
2024/01/04 02:50:02;;;;;;;0.63;0.45;;;;;;;;;;5839463;28;20053;-87
2024/01/04 02:52:53;;;;;;;0.47;0.47;;;;;;;;;;5839838;28;20420;-88
2024/01/04 02:55:44;;;;;;;0.28;0.28;;;;;;;;;;5840253;28;20045;-88
2024/01/04 02:58:35;;;;;;;0.52;0.52;;;;;;;;;;5839232;28;20408;-89
2024/01/04 03:01:26;;;;;;;0.50;0.50;;;;;;;;;;5840247;28;20046;-88
2024/01/04 03:04:17;;;;;;;1.15;1.05;;;;;;;;;;5840187;28;20085;-88
2024/01/04 03:07:08;;;;;;;1.15;1.08;;;;;;;;;;5855161;28;20053;-88
2024/01/04 03:09:59;;;;;;;0.60;0.60;;;;;;;;;;5839347;28;20100;-88
2024/01/04 03:12:50;;;;;;;1.13;0.60;;;;;;;;;;5840566;28;20518;-88
2024/01/04 03:15:41;;;;;;;1.95;0.98;;;;;;;;;;5838578;28;20069;-89
2024/01/04 03:18:32;;;;;;;0.38;0.20;;;;;;;;;;5838657;28;20503;-87
2024/01/04 03:21:22;;;;;;;0.60;0.35;;;;;;;;;;5839866;28;20041;-88
2024/01/04 03:24:13;;;;;;;0.13;0.13;;;;;;;;;;5839938;28;20419;-89
2024/01/04 03:27:04;;;;;;;1.75;0.77;;;;;;;;;;5838620;28;20408;-88
2024/01/04 03:29:55;;;;;;;0.20;0.20;;;;;;;;;;5838228;28;20676;-88
2024/01/04 03:32:46;;;;;;;0.50;0.50;;;;;;;;;;5839748;28;20072;-88
2024/01/04 03:35:37;;;;;;;0.20;0.20;;;;;;;;;;5839485;28;20046;-87
2024/01/04 03:38:29;;;;;;;1.27;0.65;;;;;;;;;;5839662;28;20060;-88
2024/01/04 03:41:21;;;;;;;0.32;0.32;;;;;;;;;;5854617;28;20046;-86
2024/01/04 03:44:11;;;;;;;0.10;0.10;;;;;;;;;;5854552;28;20389;-87
2024/01/04 03:47:04;;;;;;;3.15;0.40;;;;;;;;;;5839642;28;20072;-87
2024/01/04 03:49:55;;;;;;;0.35;0.35;;;;;;;;;;5838542;28;20042;-88
2024/01/04 03:52:46;;;;;;;0.10;0.10;;;;;;;;;;5838192;28;20055;-88
2024/01/04 03:55:37;;;;;;;0.40;0.40;;;;;;;;;;5854480;28;20048;-88
2024/01/04 03:58:28;;;;;;;0.77;0.50;;;;;;;;;;5839425;28;20050;-88
2024/01/04 04:01:18;;;;;;;0.90;0.47;;;;;;;;;;5838067;28;20333;-88
2024/01/04 04:04:09;;;;;;;0.38;0.38;;;;;;;;;;5838013;28;20396;-87
2024/01/04 04:07:00;;;;;;;1.90;0.75;;;;;;;;;;5840011;28;20053;-88
2024/01/04 04:09:51;;;;;;;0.63;0.63;;;;;;;;;;5822017;28;20084;-88
2024/01/04 04:12:42;;;;;;;0.52;0.43;;;;;;;;;;5838075;28;20057;-88
2024/01/04 04:15:33;;;;;;;0.40;0.40;;;;;;;;;;5839174;28;20045;-88
2024/01/04 04:18:23;;;;;;;0.68;0.65;;;;;;;;;;5839155;28;20433;-88
2024/01/04 04:21:22;;;;;;;0.22;0.22;;;;;;;;;;5837890;28;20177;-87
2024/01/04 04:24:12;;;;;;;0.40;0.40;;;;;;;;;;5837900;28;20050;-89
2024/01/04 04:27:04;;;;;;;0.63;0.63;;;;;;;;;;5839035;28;20046;-88
2024/01/04 04:29:54;;;;;;;0.55;0.40;;;;;;;;;;5838374;28;20046;-88
2024/01/04 04:32:46;;;;;;;1.38;1.27;;;;;;;;;;5853748;28;20480;-87
2024/01/04 04:35:37;;;;;;;0.25;0.25;;;;;;;;;;5837641;28;20093;-88
2024/01/04 04:38:44;;;;;;;0.28;0.28;;;;;;;;;;5823934;28;20042;-87
2024/01/04 04:41:35;;;;;;;1.33;0.20;;;;;;;;;;5842154;28;20046;-87
2024/01/04 04:44:26;;;;;;;0.38;0.38;;;;;;;;;;5825779;28;20050;-88
2024/01/04 04:47:17;;;;;;;0.50;0.40;;;;;;;;;;5841962;28;20076;-87
2024/01/04 04:50:08;;;;;;;0.57;0.47;;;;;;;;;;5843104;28;20045;-87
2024/01/04 04:52:58;;;;;;;3.53;0.50;;;;;;;;;;5843467;28;20053;-88
2024/01/04 04:55:50;;;;;;;0.85;0.57;;;;;;;;;;5841890;28;20045;-88
2024/01/04 04:58:40;;;;;;;0.30;0.30;;;;;;;;;;5843015;28;20053;-88
2024/01/04 05:01:31;;;;;;;0.50;0.50;;;;;;;;;;5841348;28;20042;-88
2024/01/04 05:04:22;;;;;;;0.75;0.75;;;;;;;;;;5842932;28;20511;-87
2024/01/04 05:07:13;;;;;;;0.30;0.30;;;;;;;;;;5842870;28;20052;-88
2024/01/04 05:10:05;;;;;;;1.55;0.75;;;;;;;;;;5842700;28;20042;-87
2024/01/04 05:12:59;;;;;;;0.35;0.30;;;;;;;;;;5843148;28;20041;-88
2024/01/04 05:15:49;;;;;;;0.60;0.60;;;;;;;;;;5857942;28;20530;-88
2024/01/04 05:18:40;;;;;;;0.50;0.50;;;;;;;;;;5865738;28;20620;-88
2024/01/04 05:21:35;;;;;;;0.52;0.52;;;;;;;;;;5864288;28;20052;-88
2024/01/04 05:24:25;;;;;;;0.40;0.38;;;;;;;;;;5864697;28;20049;-88
2024/01/04 05:27:17;;;;;;;1.45;0.85;;;;;;;;;;5864444;28;20053;-88
2024/01/04 05:30:12;;;;;;;0.43;0.35;;;;;;;;;;5865378;28;20065;-87
2024/01/04 05:33:03;;;;;;;0.40;0.40;;;;;;;;;;5864033;28;20343;-87
2024/01/04 05:35:55;;;;;;;1.40;0.50;;;;;;;;;;5864490;28;20050;-88
2024/01/04 05:38:45;;;;;;;1.52;1.08;;;;;;;;;;5865189;28;20052;-88
2024/01/04 05:41:36;;;;;;;3.13;1.23;;;;;;;;;;5880462;28;20045;-89
2024/01/04 05:44:27;;;;;;;2.45;1.42;;;;;;;;;;5865209;28;20766;-88
2024/01/04 05:47:18;;;;;;;0.90;0.90;;;;;;;;;;5865133;28;20045;-89
2024/01/04 05:50:09;;;;;;;1.55;1.10;;;;;;;;;;5864874;28;20152;-89
2024/01/04 05:53:02;;;;;;;1.70;1.00;;;;;;;;;;5864200;28;20090;-88
2024/01/04 05:55:53;;;;;;;6.25;2.15;;;;;;;;;;5863944;28;20049;-88
2024/01/04 05:58:44;;;;;;;1.60;1.10;;;;;;;;;;5863515;28;20057;-88
2024/01/04 06:01:36;;;;;;;2.35;1.48;;;;;;;;;;5864853;28;20061;-89
2024/01/04 06:04:27;;;;;;;4.13;0.95;;;;;;;;;;5864756;28;20053;-87
2024/01/04 06:07:18;;;;;;;0.70;0.63;;;;;;;;;;5864741;28;20506;-88
2024/01/04 06:10:09;;;;;;;1.05;0.98;;;;;;;;;;5863315;28;20057;-89
2024/01/04 06:13:00;;;;;;;0.60;0.60;;;;;;;;;;5863897;28;20053;-89
2024/01/04 06:15:51;;;;;;;0.50;0.50;;;;;;;;;;5863495;28;20053;-88
2024/01/04 06:18:41;;;;;;;1.25;0.82;;;;;;;;;;5863062;28;20045;-88
2024/01/04 06:21:32;;;;;;;0.22;0.22;;;;;;;;;;5864330;28;20050;-88
2024/01/04 06:24:24;;;;;;;0.30;0.30;;;;;;;;;;5862802;28;20049;-88
2024/01/04 06:27:15;;;;;;;0.45;0.45;;;;;;;;;;5828522;28;20064;-88
2024/01/04 06:30:06;;;;;;;0.40;0.40;;;;;;;;;;5839361;28;20058;-86
2024/01/04 06:32:57;;;;;;;0.10;0.10;;;;;;;;;;5839800;28;20081;-88
2024/01/04 06:35:48;;;;;;;0.38;0.38;;;;;;;;;;5839543;28;20057;-87
2024/01/04 06:38:39;;;;;;;0.30;0.30;;;;;;;;;;5840807;28;20050;-87
2024/01/04 06:41:30;;;;;;;0.57;0.43;;;;;;;;;;5840784;28;20580;-87
2024/01/04 06:44:21;;;;;;;0.35;0.35;;;;;;;;;;5840728;28;20053;-88
2024/01/04 06:47:23;;;;;;;0.38;0.38;;;;;;;;;;5841041;28;20046;-88
2024/01/04 06:50:14;;;;;;;0.70;0.68;;;;;;;;;;5840772;28;20053;-87
2024/01/04 06:53:10;;;;;;;0.73;0.73;;;;;;;;;;5839536;28;20132;-87
2024/01/04 06:56:01;;;;;;;2.72;1.42;;;;;;;;;;5839274;28;20049;-87
2024/01/04 06:58:52;;;;;;;2.45;1.45;;;;;;;;;;5840815;28;20052;-88
2024/01/04 07:01:43;;;;;;;2.70;1.23;;;;;;;;;;5822864;28;20153;-88
2024/01/04 07:04:33;;;;;;;1.48;0.95;;;;;;;;;;5838281;28;20049;-88
2024/01/04 07:07:25;;;;;;;1.52;1.42;;;;;;;;;;5840236;28;20562;-88
2024/01/04 07:10:16;;;;;;;3.63;1.35;;;;;;;;;;5839087;28;20061;-88
2024/01/04 07:13:07;;;;;;;1.23;1.13;;;;;;;;;;5840322;28;20057;-88
2024/01/04 07:15:58;;;;;;;3.60;2.05;;;;;;;;;;5855478;28;20057;-88
2024/01/04 07:18:49;;;;;;;0.95;0.77;;;;;;;;;;5838844;28;20042;-88
2024/01/04 07:21:41;;;;;;;2.47;1.63;;;;;;;;;;5840087;28;20077;-88
2024/01/04 07:24:32;;;;;;;1.20;0.98;;;;;;;;;;5838666;28;20403;-88
2024/01/04 07:27:23;;;;;;;4.53;1.30;;;;;;;;;;5838615;28;20065;-87
2024/01/04 07:30:14;;;;;;;3.50;1.70;;;;;;;;;;5839916;28;20531;-88
2024/01/04 07:33:05;;;;;;;2.75;2.35;;;;;;;;;;5838428;28;20057;-87
2024/01/04 07:35:56;;;;;;;1.63;1.30;;;;;;;;;;5839294;28;20496;-88
2024/01/04 07:38:48;;;;;;;2.08;1.27;;;;;;;;;;5839949;28;20065;-88
2024/01/04 07:41:38;;;;;;;2.63;1.35;;;;;;;;;;5838397;28;20041;-88
2024/01/04 07:44:30;;;;;;;3.28;1.15;;;;;;;;;;5839494;28;20107;-88
2024/01/04 07:47:21;;;;;;;1.02;1.00;;;;;;;;;;5838391;28;20134;-87
2024/01/04 07:50:12;;;;;;;1.23;1.08;;;;;;;;;;5838273;28;20050;-88
2024/01/04 07:53:05;;;;;;;1.98;1.83;;;;;;;;;;5838184;28;20445;-87
2024/01/04 07:55:57;;;;;;;4.40;2.10;;;;;;;;;;5838431;28;20049;-88
2024/01/04 07:58:47;;;;;;;1.13;1.10;;;;;;;;;;5839507;28;20454;-88
2024/01/04 08:01:38;;;;;;;1.85;1.65;;;;;;;;;;5838104;28;20045;-88
2024/01/04 08:04:29;;;;;;;1.48;1.38;;;;;;;;;;5839304;28;20504;-88
2024/01/04 08:07:20;;;;;;;1.85;1.45;;;;;;;;;;5837799;28;20050;-87
2024/01/04 08:10:11;;;;;;;3.80;2.22;;;;;;;;;;5854476;28;20053;-88
2024/01/04 08:13:02;;;;;;;1.25;1.23;;;;;;;;;;5839324;28;20613;-87
2024/01/04 08:15:53;;;;;;;2.35;1.45;;;;;;;;;;5840363;28;20071;-88
2024/01/04 08:18:44;;;;;;;2.83;1.25;;;;;;;;;;5842535;28;20496;-88
2024/01/04 08:21:35;;;;;;;1.40;1.30;;;;;;;;;;5858861;28;20060;-88
2024/01/04 08:24:26;;;;;;;1.30;1.13;;;;;;;;;;5826160;28;20429;-88
2024/01/04 08:27:20;;;;;;;0.82;0.82;;;;;;;;;;5844045;28;20303;-87
2024/01/04 08:30:11;;;;;;;3.00;1.83;;;;;;;;;;5843525;28;20057;-88
2024/01/04 08:33:02;;;;;;;0.82;0.82;;;;;;;;;;5843442;28;20042;-86
2024/01/04 08:35:53;;;;;;;2.10;1.00;;;;;;;;;;5842562;28;20045;-87
2024/01/04 08:38:45;;;;;;;2.28;1.70;;;;;;;;;;5858605;28;20125;-87
2024/01/04 08:41:36;;;;;;;1.73;1.33;;;;;;;;;;5841974;28;20073;-87
2024/01/04 08:44:27;;;;;;;1.15;0.85;;;;;;;;;;5858598;28;20144;-87
2024/01/04 08:47:18;;;;;;;4.88;1.92;;;;;;;;;;5825716;28;20056;-87
2024/01/04 08:50:09;;;;;;;1.95;1.75;;;;;;;;;;5841852;28;20046;-86
2024/01/04 08:53:00;;;;;;;0.85;0.73;;;;;;;;;;5843591;28;20046;-87
2024/01/04 08:55:51;;;;;;;2.67;2.10;;;;;;;;;;5843344;28;20411;-87
2024/01/04 08:58:42;;;;;;;4.72;4.25;;;;;;;;;;5842835;28;20048;-86
2024/01/04 09:01:32;;;;;;;1.58;1.48;;;;;;;;;;5841606;28;20045;-86
2024/01/04 09:04:23;;;;;;;1.15;0.98;;;;;;;;;;5841469;28;20057;-87
2024/01/04 09:07:14;;;;;;;2.00;1.67;;;;;;;;;;5857863;28;20049;-87
2024/01/04 09:10:06;;;;;;;7.50;2.42;;;;;;;;;;5825156;28;20057;-87
2024/01/04 09:12:57;;;;;;;2.45;2.15;;;;;;;;;;5842143;28;20376;-87
2024/01/04 09:15:48;;;;;;;3.13;1.25;;;;;;;;;;5825372;28;20053;-86
2024/01/04 09:18:39;;;;;;;2.58;2.00;;;;;;;;;;5841332;28;20046;-87
2024/01/04 09:21:30;;;;;;;1.90;1.42;;;;;;;;;;5841423;28;20490;-88
2024/01/04 09:24:23;;;;;;;3.08;1.65;;;;;;;;;;5841216;28;20060;-86
2024/01/04 09:27:14;;;;;;;1.55;1.45;;;;;;;;;;5840093;28;20389;-86
2024/01/04 09:30:06;;;;;;;2.20;1.40;;;;;;;;;;5840969;28;20132;-85
2024/01/04 09:32:58;;;;;;;4.03;1.33;;;;;;;;;;5841267;28;20046;-86
2024/01/04 09:35:50;;;;;;;2.90;2.60;;;;;;;;;;5840804;28;20042;-86
2024/01/04 09:38:40;;;;;;;2.92;1.63;;;;;;;;;;5841020;28;20053;-86
2024/01/04 09:41:33;;;;;;;3.97;1.80;;;;;;;;;;5840709;28;20093;-86
2024/01/04 09:44:24;;;;;;;2.30;1.27;;;;;;;;;;5824625;28;20046;-85
2024/01/04 09:47:22;;;;;;;2.50;1.90;;;;;;;;;;5840706;28;20053;-85
2024/01/04 09:50:13;;;;;;;1.25;0.68;;;;;;;;;;5840730;28;20053;-86
2024/01/04 09:53:06;;;;;;;2.13;1.83;;;;;;;;;;5840733;28;20058;-85
2024/01/04 09:56:01;;;;;;;8.60;2.35;;;;;;;;;;5824858;28;20642;-85
2024/01/04 09:58:53;;;;;;;3.38;1.98;;;;;;;;;;5824522;28;20066;-85
2024/01/04 10:01:46;;;;;;;2.03;1.55;;;;;;;;;;5824409;28;20121;-85
2024/01/04 10:04:42;;;;;;;2.13;1.75;;;;;;;;;;5840304;28;20408;-86
2024/01/04 10:07:36;;;;;;;1.98;1.50;;;;;;;;;;5856619;28;20052;-85
2024/01/04 10:10:33;;;;;;;4.60;2.60;;;;;;;;;;5840169;28;20503;-87
2024/01/04 10:13:24;;;;;;;3.78;2.33;;;;;;;;;;5839844;28;20057;-87
2024/01/04 10:16:16;;;;;;;7.47;2.42;;;;;;;;;;5841310;28;20498;-87
2024/01/04 10:19:07;;;;;;;3.28;2.53;;;;;;;;;;5840997;28;20054;-87
2024/01/04 10:22:03;;;;;;;5.55;1.77;;;;;;;;;;5841768;28;20072;-86
2024/01/04 10:24:54;;;;;;;1.30;1.20;;;;;;;;;;5839935;28;20053;-86
2024/01/04 10:27:58;;;;;;;1.70;1.50;;;;;;;;;;5839650;28;20076;-86
2024/01/04 10:30:55;;;;;;;2.08;1.88;;;;;;;;;;5840054;28;20042;-87
2024/01/04 10:33:46;;;;;;;3.88;2.63;;;;;;;;;;5839621;28;20171;-88
2024/01/04 10:36:40;;;;;;;2.88;2.33;;;;;;;;;;5840894;28;20515;-88
2024/01/04 10:39:32;;;;;;;3.70;1.77;;;;;;;;;;5839513;28;20496;-90
2024/01/04 10:42:23;;;;;;;3.47;2.35;;;;;;;;;;5840754;28;20041;-89
2024/01/04 10:45:25;;;;;;;2.05;1.67;;;;;;;;;;5839437;28;20144;-88
2024/01/04 10:48:17;;;;;;;4.38;3.65;;;;;;;;;;5839348;28;20046;-88
2024/01/04 10:51:09;;;;;;;3.67;2.75;;;;;;;;;;5839132;28;20073;-88
2024/01/04 10:54:01;;;;;;;4.10;3.05;;;;;;;;;;5839697;28;20074;-88
2024/01/04 10:56:53;;;;;;;5.50;4.13;;;;;;;;;;5839507;28;20042;-88
2024/01/04 10:59:46;;;;;;;2.42;2.22;;;;;;;;;;5839096;28;20041;-88
2024/01/04 11:02:38;;;;;;;19.92;1.75;;;;;;;;;;5839452;28;20223;-88
2024/01/04 11:05:30;;;;;;;5.05;2.55;;;;;;;;;;5823802;28;20412;-88
2024/01/04 11:08:22;;;;;;;3.17;2.38;;;;;;;;;;5840677;28;20395;-87
2024/01/04 11:11:14;;;;;;;4.82;3.72;;;;;;;;;;5840705;28;20060;-88
2024/01/04 11:14:05;;;;;;;4.43;4.03;;;;;;;;;;5823128;28;20056;-87
2024/01/04 11:17:22;;;;;;;3.22;2.60;;;;;;;;;;5839987;28;20049;-88
2024/01/04 11:20:29;;;;;;;11.05;5.85;;;;;;;;;;5840285;28;20046;-87
2024/01/04 11:23:52;;;;;;;8.52;3.85;;;;;;;;;;5838899;28;20048;-88
2024/01/04 11:26:57;;;;;;;4.35;3.53;;;;;;;;;;5855187;28;20038;-87
2024/01/04 11:29:49;;;;;;;19.17;6.05;;;;;;;;;;5839108;28;20045;-88
2024/01/04 11:32:44;;;;;;;5.80;4.93;;;;;;;;;;5838936;28;20077;-88
2024/01/04 11:35:36;;;;;;;6.75;5.15;;;;;;;;;;5839058;28;20061;-87
2024/01/04 11:38:34;;;;;;;9.48;5.43;;;;;;;;;;5822612;28;20044;-88
2024/01/04 11:41:36;;;;;;;6.97;3.90;;;;;;;;;;5838733;28;20416;-88
2024/01/04 11:44:35;;;;;;;11.18;7.75;;;;;;;;;;5840032;28;20053;-88
2024/01/04 11:47:26;;;;;;;;;;;;;;;;;;5839198;28;20053;-88
2024/01/04 11:50:22;;;;;;;9.18;5.45;;;;;;;;;;5821785;28;19921;-87
2024/01/04 11:53:15;;;;;;;6.70;4.75;;;;;;;;;;5822715;28;20046;-88
2024/01/04 11:56:07;;;;;;;4.07;2.95;;;;;;;;;;5838613;28;20050;-87
2024/01/04 11:59:12;;;;;;;4.10;3.13;;;;;;;;;;5838854;28;20057;-88
2024/01/04 12:02:03;;;;;;;1.52;1.25;;;;;;;;;;5839187;28;20551;-87
2024/01/04 12:04:54;;;;;;;3.78;2.38;;;;;;;;;;5838876;28;20038;-87
2024/01/04 12:07:45;;;;;;;6.35;2.55;;;;;;;;;;5839442;28;20085;-88
2024/01/04 12:10:36;;;;;;;2.40;1.40;;;;;;;;;;5839686;28;20045;-89
2024/01/04 12:13:27;;;;;;;0.15;0.15;;;;;;;;;;5822179;28;20046;-88
2024/01/04 12:16:18;;;;;;;1.35;1.25;;;;;;;;;;5854421;28;20516;-88
2024/01/04 12:19:09;;;;;;;0.45;0.45;;;;;;;;;;5839161;28;20046;-87
2024/01/04 12:22:00;;;;;;;0.65;0.65;;;;;;;;;;5854571;28;20129;-88
2024/01/04 12:24:52;;;;;;;2.67;1.05;;;;;;;;;;5839354;28;20054;-88
2024/01/04 12:27:45;;;;;;;1.55;0.98;;;;;;;;;;5822030;28;20049;-88
2024/01/04 12:30:40;;;;;;;0.32;0.32;;;;;;;;;;5837935;28;20046;-89
2024/01/04 12:33:31;;;;;;;4.53;2.53;;;;;;;;;;5837627;28;20416;-88
2024/01/04 12:36:24;;;;;;;5.47;3.78;;;;;;;;;;5837871;28;20578;-88
2024/01/04 12:39:14;;;;;;;12.27;6.90;;;;;;;;;;5837544;28;20495;-87
2024/01/04 12:42:05;;;;;;;2.63;1.65;;;;;;;;;;5837821;28;20135;-88
2024/01/04 12:44:56;;;;;;;2.58;1.23;;;;;;;;;;5837956;28;20042;-88
2024/01/04 12:47:47;;;;;;;1.95;1.48;;;;;;;;;;5837663;28;20038;-88
2024/01/04 12:50:38;;;;;;;0.98;0.98;;;;;;;;;;5837651;28;20042;-88
2024/01/04 12:53:29;;;;;;;2.97;1.00;;;;;;;;;;5821519;28;20169;-88
2024/01/04 12:56:20;;;;;;;0.68;0.57;;;;;;;;;;5838925;28;20046;-88
2024/01/04 12:59:12;;;;;;;0.82;0.82;;;;;;;;;;5837401;28;20050;-88
2024/01/04 13:02:03;;;;;;;1.73;1.00;;;;;;;;;;5839566;28;20140;-88
2024/01/04 13:04:54;;;;;;;0.88;0.85;;;;;;;;;;5825813;28;20050;-88
2024/01/04 13:07:47;;;;;;;1.52;1.17;;;;;;;;;;5842779;28;20044;-87
2024/01/04 13:10:39;;;;;;;0.77;0.77;;;;;;;;;;5842790;28;20049;-88
2024/01/04 13:13:29;;;;;;;1.80;1.67;;;;;;;;;;5842699;28;20046;-88
2024/01/04 13:16:23;;;;;;;3.22;2.42;;;;;;;;;;5842704;28;20049;-88
2024/01/04 13:19:15;;;;;;;1.77;1.67;;;;;;;;;;5841379;28;20056;-87
2024/01/04 13:22:07;;;;;;;1.80;1.58;;;;;;;;;;5842343;28;20411;-87
2024/01/04 13:24:58;;;;;;;3.05;1.92;;;;;;;;;;5841639;28;20053;-87
2024/01/04 13:27:49;;;;;;;5.00;3.47;;;;;;;;;;5841127;28;20049;-87
2024/01/04 13:30:40;;;;;;;3.80;2.42;;;;;;;;;;5842438;28;20944;-87
2024/01/04 13:33:31;;;;;;;3.47;1.88;;;;;;;;;;5842032;28;20088;-87
2024/01/04 13:36:22;;;;;;;6.25;5.15;;;;;;;;;;5842267;28;20042;-87
2024/01/04 13:39:13;;;;;;;4.60;3.50;;;;;;;;;;5842264;28;20516;-87
2024/01/04 13:42:04;;;;;;;15.38;9.40;;;;;;;;;;5842199;28;20061;-87
2024/01/04 13:44:55;;;;;;;9.38;5.40;;;;;;;;;;5841316;28;20566;-87
2024/01/04 13:47:46;;;;;;;6.10;5.10;;;;;;;;;;5842419;28;20176;-87
2024/01/04 13:50:38;;;;;;;9.82;7.57;;;;;;;;;;5825058;28;20057;-87
2024/01/04 13:53:28;;;;;;;11.50;4.65;;;;;;;;;;5842207;28;20412;-87
2024/01/04 13:56:19;;;;;;;10.52;6.32;;;;;;;;;;5841582;28;20057;-87
2024/01/04 13:59:10;;;;;;;11.35;5.65;;;;;;;;;;5841945;28;20050;-86
2024/01/04 14:02:02;;;;;;;3.88;3.47;;;;;;;;;;5842012;28;20054;-86
2024/01/04 14:04:53;;;;;;;8.40;5.88;;;;;;;;;;5840882;28;20593;-87
2024/01/04 14:07:44;;;;;;;7.70;4.07;;;;;;;;;;5841756;28;20044;-87
2024/01/04 14:10:35;;;;;;;16.83;7.72;;;;;;;;;;5840385;28;20056;-87
2024/01/04 14:13:27;;;;;;;11.90;6.45;;;;;;;;;;5841200;28;20053;-86
2024/01/04 14:16:18;;;;;;;6.13;5.00;;;;;;;;;;5841301;28;20061;-87
2024/01/04 14:19:09;;;;;;;7.28;5.10;;;;;;;;;;5840196;28;20432;-86
2024/01/04 14:22:00;;;;;;;10.80;7.85;;;;;;;;;;5843208;28;20050;-87
2024/01/04 14:24:51;;;;;;;8.25;5.20;;;;;;;;;;5842901;28;20064;-86
2024/01/04 14:27:43;;;;;;;6.05;3.40;;;;;;;;;;5841095;28;20453;-87
2024/01/04 14:30:34;;;;;;;4.97;4.25;;;;;;;;;;5857418;28;20136;-86
2024/01/04 14:33:25;;;;;;;14.13;6.28;;;;;;;;;;5841803;28;20042;-86
2024/01/04 14:36:25;;;;;;;5.97;2.97;;;;;;;;;;5842050;28;20145;-87
2024/01/04 14:39:21;;;;;;;2.47;2.03;;;;;;;;;;5840493;28;20085;-86
2024/01/04 14:42:14;;;;;;;5.00;2.95;;;;;;;;;;5842275;28;20077;-86
2024/01/04 14:45:05;;;;;;;2.70;2.30;;;;;;;;;;5841840;28;20050;-87
2024/01/04 14:47:56;;;;;;;3.17;2.47;;;;;;;;;;5842928;28;20042;-87
2024/01/04 14:50:48;;;;;;;2.10;1.48;;;;;;;;;;5840792;28;20042;-86
2024/01/04 14:53:40;;;;;;;4.03;2.13;;;;;;;;;;5839866;28;20085;-86
2024/01/04 14:56:36;;;;;;;4.10;3.13;;;;;;;;;;5823438;28;20042;-86
2024/01/04 14:59:27;;;;;;;3.58;3.28;;;;;;;;;;5840667;28;20902;-86
2024/01/04 15:02:18;;;;;;;3.22;2.83;;;;;;;;;;5838759;28;20050;-86
2024/01/04 15:05:09;;;;;;;3.75;3.33;;;;;;;;;;5838960;28;20440;-86
2024/01/04 15:08:01;;;;;;;17.15;3.05;;;;;;;;;;5839144;28;20441;-81
2024/01/04 15:10:51;;;;;;;5.55;3.10;;;;;;;;;;5823168;28;20038;-86
2024/01/04 15:13:42;;;;;;;4.97;2.53;;;;;;;;;;5840182;28;20420;-86
2024/01/04 15:16:33;;;;;;;4.65;3.90;;;;;;;;;;5838661;28;20041;-86
2024/01/04 15:19:24;;;;;;;13.85;7.93;;;;;;;;;;5822491;28;20052;-86
2024/01/04 15:22:15;;;;;;;6.22;4.97;;;;;;;;;;5838588;28;20050;-85
2024/01/04 15:25:07;;;;;;;4.63;4.20;;;;;;;;;;5839066;28;20049;-86
2024/01/04 15:27:58;;;;;;;8.95;6.60;;;;;;;;;;5839205;28;20054;-87
2024/01/04 15:30:49;;;;;;;8.20;6.53;;;;;;;;;;5839875;28;20454;-86
2024/01/04 15:33:40;;;;;;;9.77;4.97;;;;;;;;;;5838218;28;20048;-86
2024/01/04 15:36:31;;;;;;;9.00;4.75;;;;;;;;;;5838416;28;20050;-86
2024/01/04 15:39:22;;;;;;;6.13;3.72;;;;;;;;;;5840452;28;20562;-86
2024/01/04 15:42:13;;;;;;;6.60;5.28;;;;;;;;;;5838896;28;20132;-86
2024/01/04 15:45:05;;;;;;;7.18;5.63;;;;;;;;;;5841124;28;20046;-86
2024/01/04 15:47:57;;;;;;;10.35;3.03;;;;;;;;;;5839798;28;20065;-87
2024/01/04 15:50:48;;;;;;;4.90;2.55;;;;;;;;;;5839882;28;20117;-87
2024/01/04 15:53:38;;;;;;;21.60;2.40;;;;;;;;;;5840786;28;20046;-88
2024/01/04 15:56:29;;;;;;;5.20;2.92;;;;;;;;;;5822906;28;20042;-89
2024/01/04 15:59:22;;;;;;;0.50;0.50;;;;;;;;;;5839501;28;20393;-88
2024/01/04 16:02:13;;;;;;;0.82;0.82;;;;;;;;;;5840789;28;20042;-88
2024/01/04 16:05:08;;;;;;;0.73;0.60;;;;;;;;;;5839286;28;20049;-88
2024/01/04 16:08:00;;;;;;;2.72;0.88;;;;;;;;;;5840482;28;20053;-88
2024/01/04 16:10:53;;;;;;;4.63;1.58;;;;;;;;;;5838484;28;20049;-88
2024/01/04 16:13:46;;;;;;;4.63;3.13;;;;;;;;;;5854164;28;20518;-88
2024/01/04 16:16:37;;;;;;;2.63;2.42;;;;;;;;;;5838078;28;20052;-87
2024/01/04 16:19:28;;;;;;;7.70;4.85;;;;;;;;;;5839652;28;20046;-88
2024/01/04 16:22:19;;;;;;;7.03;4.25;;;;;;;;;;5838427;28;20070;-86
2024/01/04 16:25:10;;;;;;;5.15;3.40;;;;;;;;;;5838200;28;20837;-86
2024/01/04 16:28:02;;;;;;;9.30;5.03;;;;;;;;;;5838130;28;20061;-85
2024/01/04 16:30:52;;;;;;;3.80;3.15;;;;;;;;;;5839750;28;20041;-86
2024/01/04 16:33:43;;;;;;;5.18;3.65;;;;;;;;;;5839103;28;20522;-87
2024/01/04 16:36:34;;;;;;;9.25;4.68;;;;;;;;;;5855486;28;20144;-86
2024/01/04 16:39:28;;;;;;;6.90;4.22;;;;;;;;;;5842025;28;20053;-86
2024/01/04 16:42:19;;;;;;;3.03;2.72;;;;;;;;;;5842115;28;20057;-86
2024/01/04 16:45:13;;;;;;;9.80;4.68;;;;;;;;;;5843388;28;20133;-86
2024/01/04 16:48:05;;;;;;;7.60;3.58;;;;;;;;;;5843050;28;20053;-86
2024/01/04 16:50:56;;;;;;;7.85;3.75;;;;;;;;;;5858863;28;20038;-86
2024/01/04 16:53:47;;;;;;;2.25;1.73;;;;;;;;;;5842054;28;20230;-87
2024/01/04 16:56:38;;;;;;;3.17;2.25;;;;;;;;;;5843097;28;20129;-86
2024/01/04 16:59:28;;;;;;;2.40;1.80;;;;;;;;;;5843266;28;20519;-87
2024/01/04 17:02:19;;;;;;;1.33;1.23;;;;;;;;;;5825651;28;20421;-86
2024/01/04 17:05:10;;;;;;;2.83;2.60;;;;;;;;;;5841691;28;20431;-87
2024/01/04 17:08:02;;;;;;;1.23;1.15;;;;;;;;;;5841564;28;20444;-85
2024/01/04 17:10:53;;;;;;;4.00;1.70;;;;;;;;;;5842126;28;20053;-86